sensor_id;sensor_type;location;lat;lon;timestamp;P1;durP1;ratioP1;P2;durP2;ratioP2
47555;SDS011;33291;46.222;26.460;2022-08-14T00:00:45;18.45;;;15.93;;
47555;SDS011;33291;46.222;26.460;2022-08-14T00:03:18;17.30;;;15.15;;
47555;SDS011;33291;46.222;26.460;2022-08-14T00:05:44;21.33;;;15.63;;
47555;SDS011;33291;46.222;26.460;2022-08-14T00:08:10;21.27;;;16.13;;
47555;SDS011;33291;46.222;26.460;2022-08-14T00:10:35;19.90;;;14.70;;
47555;SDS011;33291;46.222;26.460;2022-08-14T00:13:01;20.55;;;16.13;;
47555;SDS011;33291;46.222;26.460;2022-08-14T00:15:31;22.48;;;15.23;;
47555;SDS011;33291;46.222;26.460;2022-08-14T00:17:58;21.20;;;15.38;;
47555;SDS011;33291;46.222;26.460;2022-08-14T00:20:26;21.02;;;15.07;;
47555;SDS011;33291;46.222;26.460;2022-08-14T00:22:53;18.77;;;15.10;;
47555;SDS011;33291;46.222;26.460;2022-08-14T00:25:19;24.17;;;16.75;;
47555;SDS011;33291;46.222;26.460;2022-08-14T00:27:44;23.38;;;16.38;;
47555;SDS011;33291;46.222;26.460;2022-08-14T00:30:11;19.10;;;15.27;;
47555;SDS011;33291;46.222;26.460;2022-08-14T00:32:38;25.77;;;15.77;;
47555;SDS011;33291;46.222;26.460;2022-08-14T00:35:04;24.10;;;15.48;;
47555;SDS011;33291;46.222;26.460;2022-08-14T00:37:31;17.73;;;15.73;;
47555;SDS011;33291;46.222;26.460;2022-08-14T00:39:58;17.33;;;15.10;;
47555;SDS011;33291;46.222;26.460;2022-08-14T00:42:24;19.25;;;15.50;;
47555;SDS011;33291;46.222;26.460;2022-08-14T00:44:50;21.85;;;14.55;;
47555;SDS011;33291;46.222;26.460;2022-08-14T00:47:16;20.48;;;14.95;;
47555;SDS011;33291;46.222;26.460;2022-08-14T00:49:42;18.02;;;15.25;;
47555;SDS011;33291;46.222;26.460;2022-08-14T00:52:10;16.92;;;15.02;;
47555;SDS011;33291;46.222;26.460;2022-08-14T00:54:37;19.58;;;15.30;;
47555;SDS011;33291;46.222;26.460;2022-08-14T00:57:03;26.23;;;15.98;;
47555;SDS011;33291;46.222;26.460;2022-08-14T00:59:29;24.98;;;15.60;;
47555;SDS011;33291;46.222;26.460;2022-08-14T01:01:56;21.90;;;15.43;;
47555;SDS011;33291;46.222;26.460;2022-08-14T01:04:25;26.00;;;16.88;;
47555;SDS011;33291;46.222;26.460;2022-08-14T01:06:52;20.73;;;16.17;;
47555;SDS011;33291;46.222;26.460;2022-08-14T01:09:19;25.80;;;16.08;;
47555;SDS011;33291;46.222;26.460;2022-08-14T01:11:48;17.38;;;15.13;;
47555;SDS011;33291;46.222;26.460;2022-08-14T01:14:15;21.42;;;15.45;;
47555;SDS011;33291;46.222;26.460;2022-08-14T01:16:42;17.80;;;15.90;;
47555;SDS011;33291;46.222;26.460;2022-08-14T01:19:08;19.52;;;15.55;;
47555;SDS011;33291;46.222;26.460;2022-08-14T01:21:52;19.15;;;15.23;;
47555;SDS011;33291;46.222;26.460;2022-08-14T01:24:17;18.38;;;15.10;;
47555;SDS011;33291;46.222;26.460;2022-08-14T01:26:45;19.65;;;15.77;;
47555;SDS011;33291;46.222;26.460;2022-08-14T01:29:11;18.15;;;15.43;;
47555;SDS011;33291;46.222;26.460;2022-08-14T01:31:38;17.80;;;15.43;;
47555;SDS011;33291;46.222;26.460;2022-08-14T01:34:10;24.27;;;15.80;;
47555;SDS011;33291;46.222;26.460;2022-08-14T01:36:36;21.02;;;16.17;;
47555;SDS011;33291;46.222;26.460;2022-08-14T01:39:07;23.17;;;16.20;;
47555;SDS011;33291;46.222;26.460;2022-08-14T01:41:37;20.98;;;16.30;;
47555;SDS011;33291;46.222;26.460;2022-08-14T01:44:07;21.30;;;16.45;;
47555;SDS011;33291;46.222;26.460;2022-08-14T01:46:37;20.77;;;16.05;;
47555;SDS011;33291;46.222;26.460;2022-08-14T01:49:05;22.58;;;15.57;;
47555;SDS011;33291;46.222;26.460;2022-08-14T01:51:33;17.77;;;14.52;;
47555;SDS011;33291;46.222;26.460;2022-08-14T01:54:03;19.08;;;15.75;;
47555;SDS011;33291;46.222;26.460;2022-08-14T01:56:31;20.83;;;15.73;;
47555;SDS011;33291;46.222;26.460;2022-08-14T01:59:09;26.63;;;15.93;;
47555;SDS011;33291;46.222;26.460;2022-08-14T02:01:54;18.33;;;15.00;;
47555;SDS011;33291;46.222;26.460;2022-08-14T02:04:22;20.52;;;15.60;;
47555;SDS011;33291;46.222;26.460;2022-08-14T02:06:50;19.55;;;15.48;;
47555;SDS011;33291;46.222;26.460;2022-08-14T02:09:16;20.58;;;14.95;;
47555;SDS011;33291;46.222;26.460;2022-08-14T02:11:43;19.92;;;15.93;;
47555;SDS011;33291;46.222;26.460;2022-08-14T02:14:10;22.58;;;15.50;;
47555;SDS011;33291;46.222;26.460;2022-08-14T02:16:47;20.38;;;16.58;;
47555;SDS011;33291;46.222;26.460;2022-08-14T02:19:18;18.58;;;15.93;;
47555;SDS011;33291;46.222;26.460;2022-08-14T02:21:46;22.40;;;15.55;;
47555;SDS011;33291;46.222;26.460;2022-08-14T02:24:14;18.27;;;15.73;;
47555;SDS011;33291;46.222;26.460;2022-08-14T02:26:41;21.15;;;15.52;;
47555;SDS011;33291;46.222;26.460;2022-08-14T02:29:12;19.45;;;16.40;;
47555;SDS011;33291;46.222;26.460;2022-08-14T02:31:42;22.23;;;16.30;;
47555;SDS011;33291;46.222;26.460;2022-08-14T02:37:04;18.48;;;15.98;;
47555;SDS011;33291;46.222;26.460;2022-08-14T02:39:40;17.98;;;16.05;;
47555;SDS011;33291;46.222;26.460;2022-08-14T02:42:09;25.00;;;16.10;;
47555;SDS011;33291;46.222;26.460;2022-08-14T02:44:41;22.92;;;16.58;;
47555;SDS011;33291;46.222;26.460;2022-08-14T02:47:08;25.17;;;15.07;;
47555;SDS011;33291;46.222;26.460;2022-08-14T02:49:35;19.63;;;16.70;;
47555;SDS011;33291;46.222;26.460;2022-08-14T02:52:01;22.58;;;15.93;;
47555;SDS011;33291;46.222;26.460;2022-08-14T02:54:32;20.02;;;16.27;;
47555;SDS011;33291;46.222;26.460;2022-08-14T02:56:59;24.35;;;16.38;;
47555;SDS011;33291;46.222;26.460;2022-08-14T02:59:26;21.00;;;17.17;;
47555;SDS011;33291;46.222;26.460;2022-08-14T03:01:55;21.90;;;16.05;;
47555;SDS011;33291;46.222;26.460;2022-08-14T03:04:21;22.25;;;15.52;;
47555;SDS011;33291;46.222;26.460;2022-08-14T03:06:48;19.70;;;16.02;;
47555;SDS011;33291;46.222;26.460;2022-08-14T03:09:14;23.63;;;15.50;;
47555;SDS011;33291;46.222;26.460;2022-08-14T03:11:40;18.45;;;15.80;;
47555;SDS011;33291;46.222;26.460;2022-08-14T03:14:08;20.98;;;16.13;;
47555;SDS011;33291;46.222;26.460;2022-08-14T03:16:36;20.60;;;16.00;;
47555;SDS011;33291;46.222;26.460;2022-08-14T03:19:03;21.35;;;15.80;;
47555;SDS011;33291;46.222;26.460;2022-08-14T03:21:31;20.73;;;16.17;;
47555;SDS011;33291;46.222;26.460;2022-08-14T03:23:58;20.45;;;15.80;;
47555;SDS011;33291;46.222;26.460;2022-08-14T03:26:40;20.52;;;15.85;;
47555;SDS011;33291;46.222;26.460;2022-08-14T03:29:07;23.83;;;16.77;;
47555;SDS011;33291;46.222;26.460;2022-08-14T03:31:33;18.08;;;16.17;;
47555;SDS011;33291;46.222;26.460;2022-08-14T03:34:04;24.63;;;15.93;;
47555;SDS011;33291;46.222;26.460;2022-08-14T03:36:32;18.05;;;15.00;;
47555;SDS011;33291;46.222;26.460;2022-08-14T03:38:58;19.27;;;15.57;;
47555;SDS011;33291;46.222;26.460;2022-08-14T03:41:25;21.10;;;15.02;;
47555;SDS011;33291;46.222;26.460;2022-08-14T03:43:56;19.58;;;15.27;;
47555;SDS011;33291;46.222;26.460;2022-08-14T03:48:52;20.10;;;15.35;;
47555;SDS011;33291;46.222;26.460;2022-08-14T03:51:19;19.90;;;15.02;;
47555;SDS011;33291;46.222;26.460;2022-08-14T03:53:47;21.95;;;15.80;;
47555;SDS011;33291;46.222;26.460;2022-08-14T03:56:14;21.42;;;15.27;;
47555;SDS011;33291;46.222;26.460;2022-08-14T03:58:41;21.17;;;16.23;;
47555;SDS011;33291;46.222;26.460;2022-08-14T04:01:12;20.10;;;15.70;;
47555;SDS011;33291;46.222;26.460;2022-08-14T04:03:49;16.92;;;15.05;;
47555;SDS011;33291;46.222;26.460;2022-08-14T04:06:16;24.15;;;15.20;;
47555;SDS011;33291;46.222;26.460;2022-08-14T04:08:44;18.95;;;15.65;;
47555;SDS011;33291;46.222;26.460;2022-08-14T04:11:10;21.75;;;15.75;;
47555;SDS011;33291;46.222;26.460;2022-08-14T04:13:37;18.83;;;14.95;;
47555;SDS011;33291;46.222;26.460;2022-08-14T04:16:09;23.65;;;16.10;;
47555;SDS011;33291;46.222;26.460;2022-08-14T04:18:38;18.48;;;16.17;;
47555;SDS011;33291;46.222;26.460;2022-08-14T04:21:05;21.67;;;15.07;;
47555;SDS011;33291;46.222;26.460;2022-08-14T04:23:31;20.02;;;15.18;;
47555;SDS011;33291;46.222;26.460;2022-08-14T04:25:57;18.67;;;14.90;;
47555;SDS011;33291;46.222;26.460;2022-08-14T04:28:24;22.15;;;15.57;;
47555;SDS011;33291;46.222;26.460;2022-08-14T04:30:50;17.95;;;14.52;;
47555;SDS011;33291;46.222;26.460;2022-08-14T04:33:16;16.33;;;14.63;;
47555;SDS011;33291;46.222;26.460;2022-08-14T04:35:41;22.17;;;15.18;;
47555;SDS011;33291;46.222;26.460;2022-08-14T04:38:07;18.55;;;14.93;;
47555;SDS011;33291;46.222;26.460;2022-08-14T04:40:53;18.80;;;14.98;;
47555;SDS011;33291;46.222;26.460;2022-08-14T04:43:37;24.60;;;15.10;;
47555;SDS011;33291;46.222;26.460;2022-08-14T04:48:49;22.52;;;16.52;;
47555;SDS011;33291;46.222;26.460;2022-08-14T04:51:16;16.60;;;14.48;;
47555;SDS011;33291;46.222;26.460;2022-08-14T04:53:44;19.77;;;16.65;;
47555;SDS011;33291;46.222;26.460;2022-08-14T04:56:14;24.23;;;16.17;;
47555;SDS011;33291;46.222;26.460;2022-08-14T04:58:46;20.50;;;16.35;;
47555;SDS011;33291;46.222;26.460;2022-08-14T05:01:21;23.45;;;16.88;;
47555;SDS011;33291;46.222;26.460;2022-08-14T05:03:49;18.92;;;15.93;;
47555;SDS011;33291;46.222;26.460;2022-08-14T05:06:14;23.98;;;16.50;;
47555;SDS011;33291;46.222;26.460;2022-08-14T05:08:40;18.67;;;15.48;;
47555;SDS011;33291;46.222;26.460;2022-08-14T05:11:08;19.90;;;15.85;;
47555;SDS011;33291;46.222;26.460;2022-08-14T05:13:34;18.85;;;15.48;;
47555;SDS011;33291;46.222;26.460;2022-08-14T05:16:04;17.80;;;15.27;;
47555;SDS011;33291;46.222;26.460;2022-08-14T05:18:32;20.98;;;16.08;;
47555;SDS011;33291;46.222;26.460;2022-08-14T05:21:02;20.40;;;16.40;;
47555;SDS011;33291;46.222;26.460;2022-08-14T05:23:31;22.48;;;16.48;;
47555;SDS011;33291;46.222;26.460;2022-08-14T05:25:59;19.13;;;16.15;;
47555;SDS011;33291;46.222;26.460;2022-08-14T05:28:30;23.60;;;15.50;;
47555;SDS011;33291;46.222;26.460;2022-08-14T05:30:59;21.55;;;15.90;;
47555;SDS011;33291;46.222;26.460;2022-08-14T05:33:27;18.38;;;15.02;;
47555;SDS011;33291;46.222;26.460;2022-08-14T05:35:54;19.95;;;15.43;;
47555;SDS011;33291;46.222;26.460;2022-08-14T05:38:26;20.98;;;15.45;;
47555;SDS011;33291;46.222;26.460;2022-08-14T05:41:03;20.27;;;15.85;;
47555;SDS011;33291;46.222;26.460;2022-08-14T05:43:30;21.00;;;15.00;;
47555;SDS011;33291;46.222;26.460;2022-08-14T05:45:56;18.80;;;15.90;;
47555;SDS011;33291;46.222;26.460;2022-08-14T05:48:22;19.77;;;15.07;;
47555;SDS011;33291;46.222;26.460;2022-08-14T05:50:49;21.98;;;15.68;;
47555;SDS011;33291;46.222;26.460;2022-08-14T05:53:15;22.20;;;16.20;;
47555;SDS011;33291;46.222;26.460;2022-08-14T05:55:41;23.77;;;15.50;;
47555;SDS011;33291;46.222;26.460;2022-08-14T05:58:08;16.42;;;14.70;;
47555;SDS011;33291;46.222;26.460;2022-08-14T06:00:36;20.10;;;15.07;;
47555;SDS011;33291;46.222;26.460;2022-08-14T06:03:04;19.88;;;15.07;;
47555;SDS011;33291;46.222;26.460;2022-08-14T06:05:34;19.73;;;15.85;;
47555;SDS011;33291;46.222;26.460;2022-08-14T06:08:00;17.95;;;15.00;;
47555;SDS011;33291;46.222;26.460;2022-08-14T06:10:27;22.67;;;15.60;;
47555;SDS011;33291;46.222;26.460;2022-08-14T06:12:54;21.48;;;15.90;;
47555;SDS011;33291;46.222;26.460;2022-08-14T06:17:53;16.88;;;14.95;;
47555;SDS011;33291;46.222;26.460;2022-08-14T06:20:20;20.52;;;14.93;;
47555;SDS011;33291;46.222;26.460;2022-08-14T06:22:46;21.25;;;15.70;;
47555;SDS011;33291;46.222;26.460;2022-08-14T06:25:13;19.30;;;15.30;;
47555;SDS011;33291;46.222;26.460;2022-08-14T06:27:43;18.35;;;15.88;;
47555;SDS011;33291;46.222;26.460;2022-08-14T06:30:17;19.58;;;15.90;;
47555;SDS011;33291;46.222;26.460;2022-08-14T06:32:45;22.63;;;16.30;;
47555;SDS011;33291;46.222;26.460;2022-08-14T06:35:11;19.92;;;15.68;;
47555;SDS011;33291;46.222;26.460;2022-08-14T06:40:26;21.48;;;15.32;;
47555;SDS011;33291;46.222;26.460;2022-08-14T06:42:54;25.50;;;15.88;;
47555;SDS011;33291;46.222;26.460;2022-08-14T06:45:21;22.00;;;15.75;;
47555;SDS011;33291;46.222;26.460;2022-08-14T06:47:47;23.40;;;16.98;;
47555;SDS011;33291;46.222;26.460;2022-08-14T06:50:16;19.20;;;14.95;;
47555;SDS011;33291;46.222;26.460;2022-08-14T06:52:44;20.58;;;14.63;;
47555;SDS011;33291;46.222;26.460;2022-08-14T06:55:11;18.75;;;13.90;;
47555;SDS011;33291;46.222;26.460;2022-08-14T06:57:41;20.55;;;14.63;;
47555;SDS011;33291;46.222;26.460;2022-08-14T07:00:16;20.17;;;13.23;;
47555;SDS011;33291;46.222;26.460;2022-08-14T07:02:44;20.17;;;14.68;;
47555;SDS011;33291;46.222;26.460;2022-08-14T07:05:29;22.45;;;15.13;;
47555;SDS011;33291;46.222;26.460;2022-08-14T07:08:18;24.23;;;14.93;;
47555;SDS011;33291;46.222;26.460;2022-08-14T07:10:55;23.17;;;14.45;;
47555;SDS011;33291;46.222;26.460;2022-08-14T07:13:22;22.75;;;14.75;;
47555;SDS011;33291;46.222;26.460;2022-08-14T07:15:50;18.08;;;14.18;;
47555;SDS011;33291;46.222;26.460;2022-08-14T07:18:21;27.77;;;15.43;;
47555;SDS011;33291;46.222;26.460;2022-08-14T07:20:48;23.17;;;14.88;;
47555;SDS011;33291;46.222;26.460;2022-08-14T07:23:14;19.75;;;14.20;;
47555;SDS011;33291;46.222;26.460;2022-08-14T07:25:40;21.85;;;15.48;;
47555;SDS011;33291;46.222;26.460;2022-08-14T07:28:08;22.85;;;14.45;;
47555;SDS011;33291;46.222;26.460;2022-08-14T07:30:39;22.50;;;15.40;;
47555;SDS011;33291;46.222;26.460;2022-08-14T07:33:05;21.52;;;16.23;;
47555;SDS011;33291;46.222;26.460;2022-08-14T07:35:31;21.33;;;15.45;;
47555;SDS011;33291;46.222;26.460;2022-08-14T07:37:58;21.90;;;15.30;;
47555;SDS011;33291;46.222;26.460;2022-08-14T07:40:24;28.60;;;15.52;;
47555;SDS011;33291;46.222;26.460;2022-08-14T07:42:50;21.88;;;15.35;;
47555;SDS011;33291;46.222;26.460;2022-08-14T07:45:16;22.67;;;15.57;;
47555;SDS011;33291;46.222;26.460;2022-08-14T07:47:42;30.40;;;15.85;;
47555;SDS011;33291;46.222;26.460;2022-08-14T07:50:15;24.42;;;15.45;;
47555;SDS011;33291;46.222;26.460;2022-08-14T07:52:43;20.13;;;13.63;;
47555;SDS011;33291;46.222;26.460;2022-08-14T07:55:11;22.15;;;15.05;;
47555;SDS011;33291;46.222;26.460;2022-08-14T07:57:39;19.65;;;14.20;;
47555;SDS011;33291;46.222;26.460;2022-08-14T08:00:10;23.10;;;14.55;;
47555;SDS011;33291;46.222;26.460;2022-08-14T08:02:41;18.75;;;14.07;;
47555;SDS011;33291;46.222;26.460;2022-08-14T08:05:09;27.40;;;14.25;;
47555;SDS011;33291;46.222;26.460;2022-08-14T08:07:36;22.33;;;15.07;;
47555;SDS011;33291;46.222;26.460;2022-08-14T08:12:55;25.50;;;15.02;;
47555;SDS011;33291;46.222;26.460;2022-08-14T08:15:26;20.38;;;14.02;;
47555;SDS011;33291;46.222;26.460;2022-08-14T08:17:57;27.77;;;13.45;;
47555;SDS011;33291;46.222;26.460;2022-08-14T08:20:24;19.52;;;14.55;;
47555;SDS011;33291;46.222;26.460;2022-08-14T08:22:51;29.60;;;13.18;;
47555;SDS011;33291;46.222;26.460;2022-08-14T08:25:25;23.05;;;14.73;;
47555;SDS011;33291;46.222;26.460;2022-08-14T08:28:06;18.02;;;13.23;;
47555;SDS011;33291;46.222;26.460;2022-08-14T08:30:34;18.48;;;13.32;;
47555;SDS011;33291;46.222;26.460;2022-08-14T08:33:02;26.42;;;14.32;;
47555;SDS011;33291;46.222;26.460;2022-08-14T08:35:29;19.52;;;13.52;;
47555;SDS011;33291;46.222;26.460;2022-08-14T08:38:01;18.73;;;13.40;;
47555;SDS011;33291;46.222;26.460;2022-08-14T08:40:33;23.70;;;14.13;;
47555;SDS011;33291;46.222;26.460;2022-08-14T08:43:05;22.42;;;13.55;;
47555;SDS011;33291;46.222;26.460;2022-08-14T08:45:32;23.05;;;13.85;;
47555;SDS011;33291;46.222;26.460;2022-08-14T08:48:00;22.92;;;14.27;;
47555;SDS011;33291;46.222;26.460;2022-08-14T08:50:38;31.58;;;15.20;;
47555;SDS011;33291;46.222;26.460;2022-08-14T08:53:07;21.75;;;14.73;;
47555;SDS011;33291;46.222;26.460;2022-08-14T08:58:08;23.88;;;14.25;;
47555;SDS011;33291;46.222;26.460;2022-08-14T09:00:36;27.17;;;13.75;;
47555;SDS011;33291;46.222;26.460;2022-08-14T09:03:11;25.52;;;16.02;;
47555;SDS011;33291;46.222;26.460;2022-08-14T09:05:51;18.90;;;13.50;;
47555;SDS011;33291;46.222;26.460;2022-08-14T09:08:18;17.02;;;13.65;;
47555;SDS011;33291;46.222;26.460;2022-08-14T09:10:44;24.65;;;15.00;;
47555;SDS011;33291;46.222;26.460;2022-08-14T09:13:10;22.05;;;13.40;;
47555;SDS011;33291;46.222;26.460;2022-08-14T09:15:40;20.52;;;13.57;;
47555;SDS011;33291;46.222;26.460;2022-08-14T09:18:07;22.52;;;13.48;;
47555;SDS011;33291;46.222;26.460;2022-08-14T09:20:34;19.75;;;13.40;;
47555;SDS011;33291;46.222;26.460;2022-08-14T09:23:03;17.30;;;13.70;;
47555;SDS011;33291;46.222;26.460;2022-08-14T09:25:29;21.88;;;14.80;;
47555;SDS011;33291;46.222;26.460;2022-08-14T09:27:55;15.85;;;13.00;;
47555;SDS011;33291;46.222;26.460;2022-08-14T09:30:20;16.92;;;13.68;;
47555;SDS011;33291;46.222;26.460;2022-08-14T09:45:51;17.75;;;13.82;;
47555;SDS011;33291;46.222;26.460;2022-08-14T09:48:21;18.92;;;13.77;;
47555;SDS011;33291;46.222;26.460;2022-08-14T09:50:52;17.30;;;13.55;;
47555;SDS011;33291;46.222;26.460;2022-08-14T09:56:12;22.35;;;13.40;;
47555;SDS011;33291;46.222;26.460;2022-08-14T09:58:39;20.75;;;16.77;;
47555;SDS011;33291;46.222;26.460;2022-08-14T10:01:07;21.58;;;14.07;;
47555;SDS011;33291;46.222;26.460;2022-08-14T10:03:35;15.10;;;13.13;;
47555;SDS011;33291;46.222;26.460;2022-08-14T10:06:10;15.07;;;12.20;;
47555;SDS011;33291;46.222;26.460;2022-08-14T10:13:44;20.15;;;12.93;;
47555;SDS011;33291;46.222;26.460;2022-08-14T10:16:11;18.70;;;12.20;;
47555;SDS011;33291;46.222;26.460;2022-08-14T10:18:38;18.00;;;12.63;;
47555;SDS011;33291;46.222;26.460;2022-08-14T10:21:04;17.50;;;13.27;;
47555;SDS011;33291;46.222;26.460;2022-08-14T10:26:07;19.25;;;13.00;;
47555;SDS011;33291;46.222;26.460;2022-08-14T10:28:40;19.52;;;12.60;;
47555;SDS011;33291;46.222;26.460;2022-08-14T10:33:57;22.98;;;13.15;;
47555;SDS011;33291;46.222;26.460;2022-08-14T10:36:26;17.23;;;12.30;;
47555;SDS011;33291;46.222;26.460;2022-08-14T10:38:56;15.57;;;11.57;;
47555;SDS011;33291;46.222;26.460;2022-08-14T10:41:32;24.90;;;14.35;;
47555;SDS011;33291;46.222;26.460;2022-08-14T10:44:04;17.85;;;12.55;;
47555;SDS011;33291;46.222;26.460;2022-08-14T10:49:24;17.13;;;11.38;;
47555;SDS011;33291;46.222;26.460;2022-08-14T10:51:58;37.20;;;31.88;;
47555;SDS011;33291;46.222;26.460;2022-08-14T10:54:33;16.20;;;11.75;;
47555;SDS011;33291;46.222;26.460;2022-08-14T11:07:37;12.25;;;10.38;;
47555;SDS011;33291;46.222;26.460;2022-08-14T11:10:09;13.88;;;11.05;;
47555;SDS011;33291;46.222;26.460;2022-08-14T11:15:05;17.25;;;10.43;;
47555;SDS011;33291;46.222;26.460;2022-08-14T11:17:31;16.90;;;10.43;;
47555;SDS011;33291;46.222;26.460;2022-08-14T11:20:01;15.40;;;10.40;;
47555;SDS011;33291;46.222;26.460;2022-08-14T11:22:29;15.18;;;10.05;;
47555;SDS011;33291;46.222;26.460;2022-08-14T11:24:58;16.17;;;10.00;;
47555;SDS011;33291;46.222;26.460;2022-08-14T11:27:28;16.77;;;9.32;;
47555;SDS011;33291;46.222;26.460;2022-08-14T11:30:03;15.05;;;9.07;;
47555;SDS011;33291;46.222;26.460;2022-08-14T11:32:31;12.70;;;9.27;;
47555;SDS011;33291;46.222;26.460;2022-08-14T11:34:58;20.52;;;9.35;;
47555;SDS011;33291;46.222;26.460;2022-08-14T11:37:30;14.00;;;9.90;;
47555;SDS011;33291;46.222;26.460;2022-08-14T11:39:58;13.38;;;9.15;;
47555;SDS011;33291;46.222;26.460;2022-08-14T11:42:25;12.55;;;9.13;;
47555;SDS011;33291;46.222;26.460;2022-08-14T11:44:55;17.85;;;8.63;;
47555;SDS011;33291;46.222;26.460;2022-08-14T11:47:23;16.00;;;8.30;;
47555;SDS011;33291;46.222;26.460;2022-08-14T11:49:48;15.38;;;8.30;;
47555;SDS011;33291;46.222;26.460;2022-08-14T11:52:14;11.50;;;8.75;;
47555;SDS011;33291;46.222;26.460;2022-08-14T11:54:42;12.90;;;8.23;;
47555;SDS011;33291;46.222;26.460;2022-08-14T11:57:17;13.07;;;7.75;;
47555;SDS011;33291;46.222;26.460;2022-08-14T11:59:44;12.70;;;8.27;;
47555;SDS011;33291;46.222;26.460;2022-08-14T12:02:10;13.40;;;7.47;;
47555;SDS011;33291;46.222;26.460;2022-08-14T12:04:47;14.55;;;7.40;;
47555;SDS011;33291;46.222;26.460;2022-08-14T12:07:16;10.43;;;6.15;;
47555;SDS011;33291;46.222;26.460;2022-08-14T12:09:42;11.43;;;6.50;;
47555;SDS011;33291;46.222;26.460;2022-08-14T12:12:13;11.70;;;5.88;;
47555;SDS011;33291;46.222;26.460;2022-08-14T12:14:52;11.55;;;6.15;;
47555;SDS011;33291;46.222;26.460;2022-08-14T12:17:23;12.07;;;5.55;;
47555;SDS011;33291;46.222;26.460;2022-08-14T12:19:55;10.77;;;5.75;;
47555;SDS011;33291;46.222;26.460;2022-08-14T12:24:58;13.75;;;4.68;;
47555;SDS011;33291;46.222;26.460;2022-08-14T12:27:36;11.65;;;4.50;;
47555;SDS011;33291;46.222;26.460;2022-08-14T12:30:04;11.98;;;5.18;;
47555;SDS011;33291;46.222;26.460;2022-08-14T12:32:37;8.30;;;5.00;;
47555;SDS011;33291;46.222;26.460;2022-08-14T12:35:04;8.02;;;4.80;;
47555;SDS011;33291;46.222;26.460;2022-08-14T12:37:30;9.20;;;4.85;;
47555;SDS011;33291;46.222;26.460;2022-08-14T12:40:07;7.70;;;4.90;;
47555;SDS011;33291;46.222;26.460;2022-08-14T12:42:36;15.23;;;4.88;;
47555;SDS011;33291;46.222;26.460;2022-08-14T12:45:03;9.23;;;4.50;;
47555;SDS011;33291;46.222;26.460;2022-08-14T12:47:29;9.82;;;4.78;;
47555;SDS011;33291;46.222;26.460;2022-08-14T12:49:56;6.78;;;4.15;;
47555;SDS011;33291;46.222;26.460;2022-08-14T12:52:40;8.27;;;4.55;;
47555;SDS011;33291;46.222;26.460;2022-08-14T12:55:13;11.57;;;4.68;;
47555;SDS011;33291;46.222;26.460;2022-08-14T12:57:44;6.88;;;4.40;;
47555;SDS011;33291;46.222;26.460;2022-08-14T13:00:12;6.75;;;4.28;;
47555;SDS011;33291;46.222;26.460;2022-08-14T13:02:42;5.78;;;4.20;;
47555;SDS011;33291;46.222;26.460;2022-08-14T13:05:09;6.55;;;4.32;;
47555;SDS011;33291;46.222;26.460;2022-08-14T13:07:36;5.82;;;4.38;;
47555;SDS011;33291;46.222;26.460;2022-08-14T13:10:04;12.55;;;4.35;;
47555;SDS011;33291;46.222;26.460;2022-08-14T13:12:37;7.55;;;4.85;;
47555;SDS011;33291;46.222;26.460;2022-08-14T13:15:07;11.43;;;4.95;;
47555;SDS011;33291;46.222;26.460;2022-08-14T13:17:41;5.78;;;4.30;;
47555;SDS011;33291;46.222;26.460;2022-08-14T13:20:08;6.88;;;4.07;;
47555;SDS011;33291;46.222;26.460;2022-08-14T13:22:36;4.75;;;4.03;;
47555;SDS011;33291;46.222;26.460;2022-08-14T13:25:06;8.88;;;4.20;;
47555;SDS011;33291;46.222;26.460;2022-08-14T13:27:32;6.85;;;5.00;;
47555;SDS011;33291;46.222;26.460;2022-08-14T13:30:00;8.13;;;5.15;;
47555;SDS011;33291;46.222;26.460;2022-08-14T13:32:28;10.57;;;6.38;;
47555;SDS011;33291;46.222;26.460;2022-08-14T13:34:54;11.18;;;6.22;;
47555;SDS011;33291;46.222;26.460;2022-08-14T13:37:22;7.72;;;5.28;;
47555;SDS011;33291;46.222;26.460;2022-08-14T13:39:50;5.97;;;4.35;;
47555;SDS011;33291;46.222;26.460;2022-08-14T13:42:18;12.02;;;5.10;;
47555;SDS011;33291;46.222;26.460;2022-08-14T13:44:49;14.88;;;5.30;;
47555;SDS011;33291;46.222;26.460;2022-08-14T13:47:21;7.37;;;4.40;;
47555;SDS011;33291;46.222;26.460;2022-08-14T13:49:54;7.75;;;4.40;;
47555;SDS011;33291;46.222;26.460;2022-08-14T13:52:21;6.47;;;3.80;;
47555;SDS011;33291;46.222;26.460;2022-08-14T13:54:49;4.68;;;3.28;;
47555;SDS011;33291;46.222;26.460;2022-08-14T13:57:16;6.72;;;2.60;;
47555;SDS011;33291;46.222;26.460;2022-08-14T13:59:43;10.45;;;4.00;;
47555;SDS011;33291;46.222;26.460;2022-08-14T14:02:10;4.15;;;3.28;;
47555;SDS011;33291;46.222;26.460;2022-08-14T14:04:38;4.72;;;3.72;;
47555;SDS011;33291;46.222;26.460;2022-08-14T14:07:07;6.68;;;3.50;;
47555;SDS011;33291;46.222;26.460;2022-08-14T14:09:36;5.55;;;3.47;;
47555;SDS011;33291;46.222;26.460;2022-08-14T14:12:04;4.57;;;3.05;;
47555;SDS011;33291;46.222;26.460;2022-08-14T14:14:37;5.40;;;3.45;;
47555;SDS011;33291;46.222;26.460;2022-08-14T14:17:05;8.85;;;3.90;;
47555;SDS011;33291;46.222;26.460;2022-08-14T14:19:32;11.40;;;3.72;;
47555;SDS011;33291;46.222;26.460;2022-08-14T14:22:02;4.50;;;3.38;;
47555;SDS011;33291;46.222;26.460;2022-08-14T14:24:32;6.55;;;3.67;;
47555;SDS011;33291;46.222;26.460;2022-08-14T14:26:59;7.10;;;3.45;;
47555;SDS011;33291;46.222;26.460;2022-08-14T14:29:30;8.52;;;3.30;;
47555;SDS011;33291;46.222;26.460;2022-08-14T14:31:57;5.32;;;3.30;;
47555;SDS011;33291;46.222;26.460;2022-08-14T14:34:25;7.97;;;3.97;;
47555;SDS011;33291;46.222;26.460;2022-08-14T14:36:52;6.60;;;3.80;;
47555;SDS011;33291;46.222;26.460;2022-08-14T14:39:22;9.38;;;4.25;;
47555;SDS011;33291;46.222;26.460;2022-08-14T14:41:53;6.88;;;4.07;;
47555;SDS011;33291;46.222;26.460;2022-08-14T14:44:22;6.82;;;3.60;;
47555;SDS011;33291;46.222;26.460;2022-08-14T14:46:50;5.63;;;3.80;;
47555;SDS011;33291;46.222;26.460;2022-08-14T14:49:19;5.03;;;3.53;;
47555;SDS011;33291;46.222;26.460;2022-08-14T14:51:45;9.02;;;4.00;;
47555;SDS011;33291;46.222;26.460;2022-08-14T14:54:12;9.05;;;4.10;;
47555;SDS011;33291;46.222;26.460;2022-08-14T14:56:41;12.23;;;4.47;;
47555;SDS011;33291;46.222;26.460;2022-08-14T14:59:07;5.97;;;4.07;;
47555;SDS011;33291;46.222;26.460;2022-08-14T15:01:35;7.50;;;4.13;;
47555;SDS011;33291;46.222;26.460;2022-08-14T15:04:02;7.85;;;4.82;;
47555;SDS011;33291;46.222;26.460;2022-08-14T15:06:30;7.13;;;4.05;;
47555;SDS011;33291;46.222;26.460;2022-08-14T15:08:56;7.43;;;4.45;;
47555;SDS011;33291;46.222;26.460;2022-08-14T15:11:23;11.88;;;4.63;;
47555;SDS011;33291;46.222;26.460;2022-08-14T15:13:50;7.05;;;4.07;;
47555;SDS011;33291;46.222;26.460;2022-08-14T15:16:15;6.13;;;3.90;;
47555;SDS011;33291;46.222;26.460;2022-08-14T15:18:41;7.10;;;4.78;;
47555;SDS011;33291;46.222;26.460;2022-08-14T15:21:10;9.77;;;4.43;;
47555;SDS011;33291;46.222;26.460;2022-08-14T15:23:37;6.45;;;4.07;;
47555;SDS011;33291;46.222;26.460;2022-08-14T15:26:04;10.23;;;4.45;;